sensor_id;sensor_type;location;lat;lon;timestamp;pressure;altitude;pressure_sealevel;temperature;humidity
43217;BME280;60511;42.686;23.300;2023-05-18T00:01:43;94200.31;;;23.02;42.05
43217;BME280;60511;42.686;23.300;2023-05-18T00:03:43;94200.72;;;23.04;41.71
43217;BME280;60511;42.686;23.300;2023-05-18T00:05:44;94128.50;;;22.52;42.53
43217;BME280;60511;42.686;23.300;2023-05-18T00:07:44;94186.59;;;22.92;41.77
43217;BME280;60511;42.686;23.300;2023-05-18T00:09:45;94186.44;;;23.04;42.17
43217;BME280;60511;42.686;23.300;2023-05-18T00:11:46;94193.16;;;23.14;42.52
43217;BME280;60511;42.686;23.300;2023-05-18T00:13:47;94191.59;;;23.13;42.10
43217;BME280;60511;42.686;23.300;2023-05-18T00:15:48;94188.03;;;23.05;42.32
43217;BME280;60511;42.686;23.300;2023-05-18T00:17:48;94198.94;;;23.12;42.29
43217;BME280;60511;42.686;23.300;2023-05-18T00:19:49;94201.28;;;23.14;42.34
43217;BME280;60511;42.686;23.300;2023-05-18T00:21:51;94205.09;;;23.13;42.10
43217;BME280;60511;42.686;23.300;2023-05-18T00:23:51;94171.25;;;22.96;42.79
43217;BME280;60511;42.686;23.300;2023-05-18T00:25:52;94191.97;;;23.11;42.07
43217;BME280;60511;42.686;23.300;2023-05-18T00:27:52;94188.06;;;23.09;42.00
43217;BME280;60511;42.686;23.300;2023-05-18T00:29:52;94186.09;;;23.05;41.99
43217;BME280;60511;42.686;23.300;2023-05-18T00:31:53;94188.88;;;23.09;41.58
43217;BME280;60511;42.686;23.300;2023-05-18T00:33:53;94184.09;;;23.02;41.67
43217;BME280;60511;42.686;23.300;2023-05-18T00:35:53;94163.88;;;22.93;42.00
43217;BME280;60511;42.686;23.300;2023-05-18T00:37:56;94202.03;;;23.14;41.57
43217;BME280;60511;42.686;23.300;2023-05-18T00:39:56;94189.56;;;23.06;41.78
43217;BME280;60511;42.686;23.300;2023-05-18T00:41:57;94159.53;;;22.88;42.01
43217;BME280;60511;42.686;23.300;2023-05-18T00:43:58;94170.34;;;22.88;41.05
43217;BME280;60511;42.686;23.300;2023-05-18T00:45:58;94177.00;;;22.94;41.37
43217;BME280;60511;42.686;23.300;2023-05-18T00:47:59;94187.66;;;23.06;41.00
43217;BME280;60511;42.686;23.300;2023-05-18T00:50:00;94185.59;;;23.00;41.02
43217;BME280;60511;42.686;23.300;2023-05-18T00:52:01;94198.16;;;23.12;41.70
43217;BME280;60511;42.686;23.300;2023-05-18T00:54:02;94190.81;;;23.12;41.77
43217;BME280;60511;42.686;23.300;2023-05-18T00:56:03;94190.47;;;23.14;41.80
43217;BME280;60511;42.686;23.300;2023-05-18T00:58:04;94182.78;;;23.16;41.26
43217;BME280;60511;42.686;23.300;2023-05-18T01:00:05;94171.50;;;23.10;41.67
43217;BME280;60511;42.686;23.300;2023-05-18T01:02:09;94151.53;;;22.92;41.85
43217;BME280;60511;42.686;23.300;2023-05-18T01:04:11;94185.84;;;23.14;41.58
43217;BME280;60511;42.686;23.300;2023-05-18T01:06:15;94162.44;;;22.99;41.49
43217;BME280;60511;42.686;23.300;2023-05-18T01:08:17;94182.38;;;23.14;41.90
43217;BME280;60511;42.686;23.300;2023-05-18T01:10:19;94185.38;;;23.09;41.64
43217;BME280;60511;42.686;23.300;2023-05-18T01:12:38;94150.94;;;22.79;41.92
43217;BME280;60511;42.686;23.300;2023-05-18T01:17:06;94187.78;;;22.94;42.00
43217;BME280;60511;42.686;23.300;2023-05-18T01:26:28;94122.78;;;22.57;42.17
43217;BME280;60511;42.686;23.300;2023-05-18T01:28:32;94163.22;;;22.76;40.90
43217;BME280;60511;42.686;23.300;2023-05-18T01:30:37;94203.84;;;23.06;41.13
43217;BME280;60511;42.686;23.300;2023-05-18T01:32:39;94199.84;;;23.00;42.45
43217;BME280;60511;42.686;23.300;2023-05-18T01:34:41;94183.47;;;22.90;42.16
43217;BME280;60511;42.686;23.300;2023-05-18T01:36:41;94185.09;;;22.94;40.54
43217;BME280;60511;42.686;23.300;2023-05-18T01:38:43;94008.44;;;21.73;42.33
43217;BME280;60511;42.686;23.300;2023-05-18T01:41:10;94190.38;;;22.87;41.83
43217;BME280;60511;42.686;23.300;2023-05-18T01:43:15;94174.84;;;22.80;41.87
43217;BME280;60511;42.686;23.300;2023-05-18T01:45:21;94171.44;;;22.83;42.69
43217;BME280;60511;42.686;23.300;2023-05-18T01:47:27;94183.56;;;22.93;42.14
43217;BME280;60511;42.686;23.300;2023-05-18T01:49:42;94193.19;;;22.94;41.55
43217;BME280;60511;42.686;23.300;2023-05-18T01:51:46;94166.38;;;22.82;41.69
43217;BME280;60511;42.686;23.300;2023-05-18T01:53:52;94186.34;;;23.00;41.60
43217;BME280;60511;42.686;23.300;2023-05-18T01:55:54;94190.97;;;23.00;41.62
43217;BME280;60511;42.686;23.300;2023-05-18T01:57:56;94196.72;;;22.98;41.45
43217;BME280;60511;42.686;23.300;2023-05-18T01:59:58;94185.00;;;22.87;41.66
43217;BME280;60511;42.686;23.300;2023-05-18T02:02:04;94200.59;;;22.97;41.61
43217;BME280;60511;42.686;23.300;2023-05-18T02:04:08;94199.41;;;22.95;41.32
43217;BME280;60511;42.686;23.300;2023-05-18T02:06:09;94163.16;;;22.73;41.08
43217;BME280;60511;42.686;23.300;2023-05-18T02:08:09;94194.41;;;22.97;41.49
43217;BME280;60511;42.686;23.300;2023-05-18T02:10:10;94180.28;;;22.84;41.39
43217;BME280;60511;42.686;23.300;2023-05-18T02:12:11;94176.13;;;22.86;41.30
43217;BME280;60511;42.686;23.300;2023-05-18T02:14:11;94202.56;;;23.00;41.27
43217;BME280;60511;42.686;23.300;2023-05-18T02:16:11;94196.81;;;23.02;41.46
43217;BME280;60511;42.686;23.300;2023-05-18T02:18:12;94203.63;;;22.96;41.15
43217;BME280;60511;42.686;23.300;2023-05-18T02:20:13;94208.31;;;22.99;41.49
43217;BME280;60511;42.686;23.300;2023-05-18T02:22:17;94160.81;;;22.71;41.35
43217;BME280;60511;42.686;23.300;2023-05-18T02:24:17;94200.09;;;22.92;41.55
43217;BME280;60511;42.686;23.300;2023-05-18T02:26:18;94198.91;;;22.89;41.32
43217;BME280;60511;42.686;23.300;2023-05-18T02:28:18;94203.69;;;22.99;41.91
43217;BME280;60511;42.686;23.300;2023-05-18T02:30:19;94204.78;;;22.95;42.05
43217;BME280;60511;42.686;23.300;2023-05-18T02:32:19;94200.09;;;22.92;41.88
43217;BME280;60511;42.686;23.300;2023-05-18T02:34:20;94199.31;;;22.91;41.72
43217;BME280;60511;42.686;23.300;2023-05-18T02:36:21;94169.97;;;22.66;41.73
43217;BME280;60511;42.686;23.300;2023-05-18T02:38:22;94210.13;;;22.91;41.53
43217;BME280;60511;42.686;23.300;2023-05-18T02:40:22;94198.13;;;22.89;41.55
43217;BME280;60511;42.686;23.300;2023-05-18T02:42:23;94199.56;;;22.82;41.71
43217;BME280;60511;42.686;23.300;2023-05-18T02:44:23;94196.78;;;22.79;41.70
43217;BME280;60511;42.686;23.300;2023-05-18T02:46:24;94171.53;;;22.67;41.85
43217;BME280;60511;42.686;23.300;2023-05-18T02:48:24;94210.34;;;22.82;41.56
43217;BME280;60511;42.686;23.300;2023-05-18T02:50:25;94194.81;;;22.76;41.92
43217;BME280;60511;42.686;23.300;2023-05-18T02:52:25;94214.59;;;22.83;41.70
43217;BME280;60511;42.686;23.300;2023-05-18T02:54:26;94209.13;;;22.80;41.65
43217;BME280;60511;42.686;23.300;2023-05-18T02:56:27;94209.50;;;22.78;41.37
43217;BME280;60511;42.686;23.300;2023-05-18T02:58:28;94175.47;;;22.51;41.57
43217;BME280;60511;42.686;23.300;2023-05-18T03:00:28;94180.28;;;22.61;41.47
43217;BME280;60511;42.686;23.300;2023-05-18T03:02:30;94200.25;;;22.79;40.92
43217;BME280;60511;42.686;23.300;2023-05-18T03:04:31;94206.16;;;22.85;40.62
43217;BME280;60511;42.686;23.300;2023-05-18T03:06:31;94231.41;;;22.96;40.79
43217;BME280;60511;42.686;23.300;2023-05-18T03:08:32;94232.41;;;22.88;40.82
43217;BME280;60511;42.686;23.300;2023-05-18T03:10:32;94234.34;;;22.87;40.75
43217;BME280;60511;42.686;23.300;2023-05-18T03:12:33;94246.47;;;22.78;41.45
43217;BME280;60511;42.686;23.300;2023-05-18T03:14:33;94253.38;;;22.95;40.94
43217;BME280;60511;42.686;23.300;2023-05-18T03:16:33;94227.25;;;22.79;41.24
43217;BME280;60511;42.686;23.300;2023-05-18T03:18:38;94252.56;;;22.94;42.08
43217;BME280;60511;42.686;23.300;2023-05-18T03:20:38;94260.25;;;22.92;41.39
43217;BME280;60511;42.686;23.300;2023-05-18T03:22:39;94257.91;;;22.91;41.80
43217;BME280;60511;42.686;23.300;2023-05-18T03:24:40;94256.69;;;22.88;41.22
43217;BME280;60511;42.686;23.300;2023-05-18T03:26:40;94248.41;;;22.77;41.00
43217;BME280;60511;42.686;23.300;2023-05-18T03:28:43;94234.44;;;22.72;41.36
43217;BME280;60511;42.686;23.300;2023-05-18T03:30:43;94263.09;;;22.99;41.07
43217;BME280;60511;42.686;23.300;2023-05-18T03:32:45;94261.38;;;22.91;41.61
43217;BME280;60511;42.686;23.300;2023-05-18T03:34:46;94273.03;;;22.95;41.79
43217;BME280;60511;42.686;23.300;2023-05-18T03:36:46;94271.09;;;22.96;41.13
43217;BME280;60511;42.686;23.300;2023-05-18T03:38:47;94269.56;;;22.95;41.42
43217;BME280;60511;42.686;23.300;2023-05-18T03:40:47;94251.59;;;22.83;41.40
43217;BME280;60511;42.686;23.300;2023-05-18T03:42:49;94247.63;;;22.77;40.91
43217;BME280;60511;42.686;23.300;2023-05-18T03:44:49;94274.53;;;22.93;41.52
43217;BME280;60511;42.686;23.300;2023-05-18T03:46:50;94253.03;;;22.77;41.12
43217;BME280;60511;42.686;23.300;2023-05-18T03:48:51;94265.94;;;22.87;41.37
43217;BME280;60511;42.686;23.300;2023-05-18T03:50:53;94280.63;;;22.90;41.29
43217;BME280;60511;42.686;23.300;2023-05-18T03:52:53;94210.47;;;22.47;41.19
43217;BME280;60511;42.686;23.300;2023-05-18T03:54:55;94275.22;;;22.90;41.16
43217;BME280;60511;42.686;23.300;2023-05-18T03:56:55;94282.63;;;22.93;41.31
43217;BME280;60511;42.686;23.300;2023-05-18T03:58:56;94272.84;;;22.84;41.27
43217;BME280;60511;42.686;23.300;2023-05-18T04:00:57;94269.00;;;22.85;40.75
43217;BME280;60511;42.686;23.300;2023-05-18T04:02:58;94283.06;;;22.95;41.28
43217;BME280;60511;42.686;23.300;2023-05-18T04:04:59;94272.75;;;22.81;41.05
43217;BME280;60511;42.686;23.300;2023-05-18T04:07:00;94281.72;;;22.85;40.89
43217;BME280;60511;42.686;23.300;2023-05-18T04:09:01;94293.03;;;22.94;41.07
43217;BME280;60511;42.686;23.300;2023-05-18T04:11:02;94254.03;;;22.69;41.09
43217;BME280;60511;42.686;23.300;2023-05-18T04:13:02;94300.38;;;22.94;41.31
43217;BME280;60511;42.686;23.300;2023-05-18T04:15:03;94300.28;;;22.90;41.10
43217;BME280;60511;42.686;23.300;2023-05-18T04:17:04;94285.91;;;22.82;41.11
43217;BME280;60511;42.686;23.300;2023-05-18T04:19:05;94296.56;;;22.95;40.57
43217;BME280;60511;42.686;23.300;2023-05-18T04:21:06;94308.13;;;22.95;41.07
43217;BME280;60511;42.686;23.300;2023-05-18T04:23:07;94298.03;;;22.92;41.36
43217;BME280;60511;42.686;23.300;2023-05-18T04:25:09;94296.31;;;22.84;40.99
43217;BME280;60511;42.686;23.300;2023-05-18T04:27:13;94297.25;;;22.92;40.95
43217;BME280;60511;42.686;23.300;2023-05-18T04:29:14;94294.47;;;22.88;41.02
43217;BME280;60511;42.686;23.300;2023-05-18T04:31:14;94273.03;;;22.76;40.98
43217;BME280;60511;42.686;23.300;2023-05-18T04:33:16;94298.94;;;23.00;41.41
43217;BME280;60511;42.686;23.300;2023-05-18T04:35:17;94310.38;;;22.93;41.23
43217;BME280;60511;42.686;23.300;2023-05-18T04:37:17;94306.41;;;22.87;40.88
43217;BME280;60511;42.686;23.300;2023-05-18T04:39:18;94291.03;;;22.68;41.08
43217;BME280;60511;42.686;23.300;2023-05-18T04:41:18;94265.75;;;22.57;41.35
43217;BME280;60511;42.686;23.300;2023-05-18T04:43:22;94282.13;;;22.67;41.13
43217;BME280;60511;42.686;23.300;2023-05-18T04:45:22;94296.19;;;22.77;40.96
43217;BME280;60511;42.686;23.300;2023-05-18T04:47:25;94270.16;;;22.65;41.46
43217;BME280;60511;42.686;23.300;2023-05-18T04:49:25;94322.03;;;22.97;41.68
43217;BME280;60511;42.686;23.300;2023-05-18T04:51:28;94319.41;;;23.01;41.27
43217;BME280;60511;42.686;23.300;2023-05-18T04:53:29;94325.25;;;23.03;41.24
43217;BME280;60511;42.686;23.300;2023-05-18T04:55:32;94321.41;;;23.04;41.58
43217;BME280;60511;42.686;23.300;2023-05-18T04:57:34;94322.91;;;23.01;40.63
43217;BME280;60511;42.686;23.300;2023-05-18T04:59:34;94303.28;;;22.85;40.57
43217;BME280;60511;42.686;23.300;2023-05-18T05:01:36;94323.53;;;22.95;40.67
43217;BME280;60511;42.686;23.300;2023-05-18T05:03:37;94343.28;;;22.99;40.91
43217;BME280;60511;42.686;23.300;2023-05-18T05:05:38;94334.94;;;22.88;41.22
43217;BME280;60511;42.686;23.300;2023-05-18T05:07:38;94330.56;;;22.80;41.01
43217;BME280;60511;42.686;23.300;2023-05-18T05:09:38;94334.81;;;22.81;41.59
43217;BME280;60511;42.686;23.300;2023-05-18T05:11:42;94335.53;;;22.78;41.25
43217;BME280;60511;42.686;23.300;2023-05-18T05:13:43;94346.41;;;22.81;41.10
43217;BME280;60511;42.686;23.300;2023-05-18T05:15:44;94295.28;;;22.50;40.70
43217;BME280;60511;42.686;23.300;2023-05-18T05:17:46;94330.34;;;22.69;41.23
43217;BME280;60511;42.686;23.300;2023-05-18T05:19:46;94338.94;;;22.75;41.32
43217;BME280;60511;42.686;23.300;2023-05-18T05:21:47;94335.81;;;22.73;40.96
43217;BME280;60511;42.686;23.300;2023-05-18T05:23:47;94348.75;;;22.83;41.23
43217;BME280;60511;42.686;23.300;2023-05-18T05:25:49;94340.22;;;22.81;41.23
43217;BME280;60511;42.686;23.300;2023-05-18T05:27:49;94370.97;;;22.96;41.54
43217;BME280;60511;42.686;23.300;2023-05-18T05:29:50;94368.25;;;22.96;41.13
43217;BME280;60511;42.686;23.300;2023-05-18T05:31:50;94364.44;;;22.97;41.14
43217;BME280;60511;42.686;23.300;2023-05-18T05:33:51;94356.63;;;22.92;40.51
43217;BME280;60511;42.686;23.300;2023-05-18T05:35:51;94358.19;;;22.93;40.79
43217;BME280;60511;42.686;23.300;2023-05-18T05:37:51;94346.91;;;22.87;41.12
43217;BME280;60511;42.686;23.300;2023-05-18T05:39:52;94371.38;;;22.98;40.54
43217;BME280;60511;42.686;23.300;2023-05-18T05:41:52;94308.69;;;22.46;40.70
43217;BME280;60511;42.686;23.300;2023-05-18T05:43:53;94347.91;;;22.79;40.58
43217;BME280;60511;42.686;23.300;2023-05-18T05:45:53;94322.13;;;22.62;40.92
43217;BME280;60511;42.686;23.300;2023-05-18T05:47:54;94337.78;;;22.76;40.50
43217;BME280;60511;42.686;23.300;2023-05-18T05:49:54;94340.06;;;22.74;40.36
43217;BME280;60511;42.686;23.300;2023-05-18T05:52:05;94378.78;;;23.01;40.87
43217;BME280;60511;42.686;23.300;2023-05-18T05:54:05;94325.25;;;22.64;40.49
43217;BME280;60511;42.686;23.300;2023-05-18T05:56:06;94370.69;;;23.01;40.90
43217;BME280;60511;42.686;23.300;2023-05-18T05:58:09;94362.78;;;22.92;40.43
43217;BME280;60511;42.686;23.300;2023-05-18T06:00:10;94373.03;;;23.02;40.81
43217;BME280;60511;42.686;23.300;2023-05-18T06:02:11;94381.28;;;23.10;40.90
43217;BME280;60511;42.686;23.300;2023-05-18T06:04:13;94383.66;;;23.11;40.86
43217;BME280;60511;42.686;23.300;2023-05-18T06:06:16;94380.94;;;23.11;40.82
43217;BME280;60511;42.686;23.300;2023-05-18T06:08:16;94380.94;;;23.11;40.65
43217;BME280;60511;42.686;23.300;2023-05-18T06:10:16;94377.44;;;23.11;40.48
43217;BME280;60511;42.686;23.300;2023-05-18T06:12:17;94386.41;;;23.15;40.68
43217;BME280;60511;42.686;23.300;2023-05-18T06:14:18;94396.84;;;23.16;40.56
43217;BME280;60511;42.686;23.300;2023-05-18T06:16:18;94389.53;;;23.17;40.60
43217;BME280;60511;42.686;23.300;2023-05-18T06:18:19;94386.34;;;23.11;40.31
43217;BME280;60511;42.686;23.300;2023-05-18T06:20:19;94384.69;;;23.06;40.61
43217;BME280;60511;42.686;23.300;2023-05-18T06:22:19;94398.03;;;23.19;40.48
43217;BME280;60511;42.686;23.300;2023-05-18T06:24:20;94398.00;;;23.15;40.18
43217;BME280;60511;42.686;23.300;2023-05-18T06:26:20;94398.69;;;23.12;40.44
43217;BME280;60511;42.686;23.300;2023-05-18T06:28:22;94356.91;;;22.86;40.08
43217;BME280;60511;42.686;23.300;2023-05-18T06:30:22;94351.66;;;22.74;40.25
43217;BME280;60511;42.686;23.300;2023-05-18T06:32:22;94388.13;;;23.03;40.35
43217;BME280;60511;42.686;23.300;2023-05-18T06:34:23;94386.47;;;22.99;40.12
43217;BME280;60511;42.686;23.300;2023-05-18T06:36:23;94394.19;;;23.00;40.28
43217;BME280;60511;42.686;23.300;2023-05-18T06:38:24;94376.16;;;22.85;40.27
43217;BME280;60511;42.686;23.300;2023-05-18T06:40:24;94389.00;;;22.92;40.36
43217;BME280;60511;42.686;23.300;2023-05-18T06:42:25;94392.06;;;22.90;40.16
43217;BME280;60511;42.686;23.300;2023-05-18T06:44:25;94392.78;;;22.87;40.01
43217;BME280;60511;42.686;23.300;2023-05-18T06:46:26;94368.53;;;22.71;40.35
43217;BME280;60511;42.686;23.300;2023-05-18T06:48:27;94415.34;;;22.98;40.35
43217;BME280;60511;42.686;23.300;2023-05-18T06:50:27;94395.75;;;22.82;40.28
43217;BME280;60511;42.686;23.300;2023-05-18T06:52:28;94399.50;;;22.77;40.26
43217;BME280;60511;42.686;23.300;2023-05-18T06:54:28;94424.59;;;22.97;40.31
43217;BME280;60511;42.686;23.300;2023-05-18T06:56:29;94416.00;;;22.92;40.09
43217;BME280;60511;42.686;23.300;2023-05-18T06:58:30;94386.31;;;22.72;40.09
43217;BME280;60511;42.686;23.300;2023-05-18T07:00:32;94408.44;;;22.81;40.28
43217;BME280;60511;42.686;23.300;2023-05-18T07:02:33;94438.09;;;22.97;40.45
43217;BME280;60511;42.686;23.300;2023-05-18T07:04:33;94373.22;;;22.55;40.15
43217;BME280;60511;42.686;23.300;2023-05-18T07:06:33;94443.06;;;22.95;40.08
43217;BME280;60511;42.686;23.300;2023-05-18T07:08:35;94431.97;;;22.81;40.25
43217;BME280;60511;42.686;23.300;2023-05-18T07:10:38;94346.06;;;22.28;40.27
43217;BME280;60511;42.686;23.300;2023-05-18T07:12:38;94450.72;;;22.93;40.36
43217;BME280;60511;42.686;23.300;2023-05-18T07:14:39;94456.03;;;22.90;40.28
43217;BME280;60511;42.686;23.300;2023-05-18T07:16:39;94454.94;;;22.91;40.55
43217;BME280;60511;42.686;23.300;2023-05-18T07:18:40;94308.28;;;21.93;40.09
43217;BME280;60511;42.686;23.300;2023-05-18T07:20:41;94414.97;;;22.61;40.13
43217;BME280;60511;42.686;23.300;2023-05-18T07:22:41;94454.84;;;22.87;40.22
43217;BME280;60511;42.686;23.300;2023-05-18T07:24:42;94461.34;;;22.86;40.07
43217;BME280;60511;42.686;23.300;2023-05-18T07:26:42;94440.63;;;22.71;40.27
43217;BME280;60511;42.686;23.300;2023-05-18T07:28:42;94467.19;;;22.88;40.48
43217;BME280;60511;42.686;23.300;2023-05-18T07:30:43;94464.69;;;22.79;40.26
43217;BME280;60511;42.686;23.300;2023-05-18T07:32:43;94468.53;;;22.78;40.48
43217;BME280;60511;42.686;23.300;2023-05-18T07:34:44;94486.03;;;22.84;40.21
43217;BME280;60511;42.686;23.300;2023-05-18T07:36:46;94449.34;;;22.64;40.50
43217;BME280;60511;42.686;23.300;2023-05-18T07:38:47;94465.41;;;22.76;40.14
43217;BME280;60511;42.686;23.300;2023-05-18T07:40:53;94463.31;;;22.70;40.18
43217;BME280;60511;42.686;23.300;2023-05-18T07:42:53;94453.88;;;22.60;40.19
43217;BME280;60511;42.686;23.300;2023-05-18T07:44:54;94459.41;;;22.67;40.34
43217;BME280;60511;42.686;23.300;2023-05-18T07:46:54;94484.00;;;22.81;40.38
43217;BME280;60511;42.686;23.300;2023-05-18T07:48:54;94489.84;;;22.83;40.09
43217;BME280;60511;42.686;23.300;2023-05-18T07:50:55;94487.47;;;22.82;40.33
43217;BME280;60511;42.686;23.300;2023-05-18T07:52:55;94481.50;;;22.73;40.35
43217;BME280;60511;42.686;23.300;2023-05-18T07:54:56;94493.25;;;22.80;40.10
43217;BME280;60511;42.686;23.300;2023-05-18T07:56:56;94483.94;;;22.78;39.95
43217;BME280;60511;42.686;23.300;2023-05-18T07:58:57;94488.53;;;22.77;40.10
43217;BME280;60511;42.686;23.300;2023-05-18T08:00:57;94481.50;;;22.73;40.41
43217;BME280;60511;42.686;23.300;2023-05-18T08:02:57;94497.06;;;22.79;40.33
43217;BME280;60511;42.686;23.300;2023-05-18T08:04:59;94495.34;;;22.71;40.09
43217;BME280;60511;42.686;23.300;2023-05-18T08:07:00;94481.34;;;22.65;40.09
43217;BME280;60511;42.686;23.300;2023-05-18T08:09:01;94507.44;;;22.77;40.38
43217;BME280;60511;42.686;23.300;2023-05-18T08:11:01;94510.91;;;22.78;40.19
43217;BME280;60511;42.686;23.300;2023-05-18T08:13:02;94511.72;;;22.78;40.35
43217;BME280;60511;42.686;23.300;2023-05-18T08:15:02;94525.53;;;22.77;40.40
43217;BME280;60511;42.686;23.300;2023-05-18T08:17:03;94520.25;;;22.80;40.08
43217;BME280;60511;42.686;23.300;2023-05-18T08:19:04;94512.75;;;22.74;39.91
43217;BME280;60511;42.686;23.300;2023-05-18T08:21:05;94487.69;;;22.57;39.93
43217;BME280;60511;42.686;23.300;2023-05-18T08:23:09;94520.41;;;22.72;40.22
43217;BME280;60511;42.686;23.300;2023-05-18T08:25:09;94515.19;;;22.63;40.14
43217;BME280;60511;42.686;23.300;2023-05-18T08:27:10;94515.97;;;22.63;39.78
43217;BME280;60511;42.686;23.300;2023-05-18T08:29:11;94534.69;;;22.72;40.02
43217;BME280;60511;42.686;23.300;2023-05-18T08:31:11;94519.09;;;22.65;40.21
43217;BME280;60511;42.686;23.300;2023-05-18T08:33:12;94529.66;;;22.71;39.99
43217;BME280;60511;42.686;23.300;2023-05-18T08:35:13;94502.88;;;22.46;40.24
43217;BME280;60511;42.686;23.300;2023-05-18T08:37:14;94527.19;;;22.65;40.17
43217;BME280;60511;42.686;23.300;2023-05-18T08:39:14;94551.47;;;22.81;39.88
43217;BME280;60511;42.686;23.300;2023-05-18T08:41:35;94551.38;;;22.78;40.04
43217;BME280;60511;42.686;23.300;2023-05-18T08:43:41;94554.44;;;22.76;40.24
43217;BME280;60511;42.686;23.300;2023-05-18T08:45:51;94556.72;;;22.74;40.01
43217;BME280;60511;42.686;23.300;2023-05-18T08:47:55;94555.91;;;22.74;40.00
43217;BME280;60511;42.686;23.300;2023-05-18T08:49:58;94555.22;;;22.77;40.19
43217;BME280;60511;42.686;23.300;2023-05-18T08:52:03;94557.16;;;22.76;39.99
43217;BME280;60511;42.686;23.300;2023-05-18T08:54:04;94540.88;;;22.57;40.04
43217;BME280;60511;42.686;23.300;2023-05-18T08:56:05;94557.41;;;22.71;39.94
43217;BME280;60511;42.686;23.300;2023-05-18T08:58:08;94563.31;;;22.77;39.83
43217;BME280;60511;42.686;23.300;2023-05-18T09:00:09;94572.53;;;22.76;40.12
43217;BME280;60511;42.686;23.300;2023-05-18T09:02:09;94559.22;;;22.67;40.09
43217;BME280;60511;42.686;23.300;2023-05-18T09:04:10;94561.59;;;22.69;39.86
43217;BME280;60511;42.686;23.300;2023-05-18T09:06:11;94579.84;;;22.75;39.64
43217;BME280;60511;42.686;23.300;2023-05-18T09:08:14;94579.06;;;22.75;39.83
43217;BME280;60511;42.686;23.300;2023-05-18T09:10:16;94585.69;;;22.77;39.99
43217;BME280;60511;42.686;23.300;2023-05-18T09:12:18;94589.97;;;22.78;39.97
43217;BME280;60511;42.686;23.300;2023-05-18T09:14:19;94504.47;;;22.19;39.70
43217;BME280;60511;42.686;23.300;2023-05-18T09:16:22;94591.00;;;22.74;39.95
43217;BME280;60511;42.686;23.300;2023-05-18T09:18:22;94591.34;;;22.72;40.03
43217;BME280;60511;42.686;23.300;2023-05-18T09:20:24;94567.06;;;22.56;39.96
43217;BME280;60511;42.686;23.300;2023-05-18T09:22:25;94597.19;;;22.74;39.88
43217;BME280;60511;42.686;23.300;2023-05-18T09:24:26;94583.84;;;22.65;39.95
43217;BME280;60511;42.686;23.300;2023-05-18T09:26:26;94599.19;;;22.77;39.91
43217;BME280;60511;42.686;23.300;2023-05-18T09:28:36;94593.69;;;22.74;39.81
43217;BME280;60511;42.686;23.300;2023-05-18T09:30:41;94578.38;;;22.62;39.86
43217;BME280;60511;42.686;23.300;2023-05-18T09:32:45;94590.06;;;22.66;39.50
43217;BME280;60511;42.686;23.300;2023-05-18T09:34:46;94600.56;;;22.71;40.17
43217;BME280;60511;42.686;23.300;2023-05-18T09:36:50;94565.75;;;22.50;39.97
43217;BME280;60511;42.686;23.300;2023-05-18T09:38:52;94605.19;;;22.71;39.59
43217;BME280;60511;42.686;23.300;2023-05-18T09:40:52;94600.22;;;22.73;39.49
43217;BME280;60511;42.686;23.300;2023-05-18T09:42:53;94603.25;;;22.71;39.60
43217;BME280;60511;42.686;23.300;2023-05-18T09:44:54;94603.25;;;22.71;39.86
43217;BME280;60511;42.686;23.300;2023-05-18T09:46:55;94589.19;;;22.62;39.94
43217;BME280;60511;42.686;23.300;2023-05-18T09:48:55;94609.09;;;22.73;39.71
43217;BME280;60511;42.686;23.300;2023-05-18T09:50:58;94586.72;;;22.57;39.57
43217;BME280;60511;42.686;23.300;2023-05-18T09:52:59;94568.47;;;22.50;39.46
43217;BME280;60511;42.686;23.300;2023-05-18T09:54:59;94607.53;;;22.72;39.54
43217;BME280;60511;42.686;23.300;2023-05-18T09:57:01;94598.06;;;22.62;39.57
43217;BME280;60511;42.686;23.300;2023-05-18T09:59:12;94608.13;;;22.65;39.45
43217;BME280;60511;42.686;23.300;2023-05-18T10:01:13;94603.00;;;22.60;39.64
43217;BME280;60511;42.686;23.300;2023-05-18T10:03:23;94599.44;;;22.56;39.37
43217;BME280;60511;42.686;23.300;2023-05-18T10:05:24;94612.50;;;22.70;39.69
43217;BME280;60511;42.686;23.300;2023-05-18T10:07:33;94625.63;;;22.72;39.58
43217;BME280;60511;42.686;23.300;2023-05-18T10:09:34;94583.16;;;22.53;39.50
43217;BME280;60511;42.686;23.300;2023-05-18T10:11:35;94591.25;;;22.53;39.40
43217;BME280;60511;42.686;23.300;2023-05-18T10:13:35;94620.66;;;22.74;39.28
43217;BME280;60511;42.686;23.300;2023-05-18T10:15:37;94596.97;;;22.51;39.30
43217;BME280;60511;42.686;23.300;2023-05-18T10:17:46;94633.38;;;22.73;39.41
43217;BME280;60511;42.686;23.300;2023-05-18T10:19:49;94571.56;;;22.36;39.42
43217;BME280;60511;42.686;23.300;2023-05-18T10:21:53;94600.56;;;22.55;39.45
43217;BME280;60511;42.686;23.300;2023-05-18T10:23:54;94603.63;;;22.54;39.28
43217;BME280;60511;42.686;23.300;2023-05-18T10:25:54;94633.03;;;22.75;39.20
43217;BME280;60511;42.686;23.300;2023-05-18T10:27:59;94612.22;;;22.59;39.44
43217;BME280;60511;42.686;23.300;2023-05-18T10:30:01;94630.69;;;22.73;39.54
43217;BME280;60511;42.686;23.300;2023-05-18T10:32:04;94640.00;;;22.76;39.15
43217;BME280;60511;42.686;23.300;2023-05-18T10:34:07;94594.03;;;22.40;39.39
43217;BME280;60511;42.686;23.300;2023-05-18T10:36:10;94592.19;;;22.44;39.36
43217;BME280;60511;42.686;23.300;2023-05-18T10:38:11;94626.69;;;22.67;39.39
43217;BME280;60511;42.686;23.300;2023-05-18T10:40:12;94627.72;;;22.62;39.28
43217;BME280;60511;42.686;23.300;2023-05-18T10:42:14;94644.28;;;22.77;39.13
43217;BME280;60511;42.686;23.300;2023-05-18T10:44:16;94645.03;;;22.77;39.48
43217;BME280;60511;42.686;23.300;2023-05-18T10:46:17;94650.44;;;22.77;39.14